createdAt,value
2022-11-24T00:01:53.392Z,71.10
2022-11-24T00:04:32.171Z,71.90
2022-11-24T00:07:11.934Z,64.77
2022-11-24T00:09:49.276Z,66.10
2022-11-24T00:12:27.066Z,64.10
2022-11-24T00:15:03.022Z,62.47
2022-11-24T00:17:40.562Z,60.17
2022-11-24T00:20:19.571Z,62.87
2022-11-24T00:22:57.749Z,61.03
2022-11-24T00:25:34.710Z,63.03
2022-11-24T00:28:10.439Z,64.73
2022-11-24T00:30:46.997Z,64.70
2022-11-24T00:33:27.298Z,62.33
2022-11-24T00:36:09.459Z,62.37
2022-11-24T00:38:53.076Z,62.20
2022-11-24T00:41:30.320Z,64.77
2022-11-24T00:44:17.380Z,63.73
2022-11-24T00:46:57.411Z,65.20
2022-11-24T00:49:34.962Z,64.77
2022-11-24T00:52:12.290Z,62.77
2022-11-24T00:54:51.560Z,63.73
2022-11-24T00:57:29.144Z,65.23
2022-11-24T01:00:07.965Z,63.97
2022-11-24T01:02:45.587Z,68.00
2022-11-24T01:05:35.465Z,62.63
2022-11-24T01:08:20.724Z,64.07
2022-11-24T01:11:11.076Z,65.70
2022-11-24T01:13:55.438Z,63.40
2022-11-24T01:16:40.403Z,63.90
2022-11-24T01:19:18.428Z,62.20
2022-11-24T01:22:02.182Z,60.67
2022-11-24T01:24:45.988Z,60.13
2022-11-24T01:27:32.011Z,58.83
2022-11-24T01:30:10.764Z,61.83
2022-11-24T01:32:52.641Z,63.97
2022-11-24T01:35:35.814Z,63.80
2022-11-24T01:38:14.704Z,63.43
2022-11-24T01:40:54.159Z,62.47
2022-11-24T01:43:43.535Z,63.20
2022-11-24T01:46:28.240Z,63.73
2022-11-24T01:49:12.079Z,60.07
2022-11-24T01:51:53.933Z,61.47
2022-11-24T01:54:35.382Z,62.70
2022-11-24T01:57:18.042Z,62.10
2022-11-24T01:59:59.943Z,61.83
2022-11-24T02:02:50.652Z,61.50
2022-11-24T02:05:40.400Z,63.67
2022-11-24T02:08:24.672Z,63.43
2022-11-24T02:11:07.676Z,60.77
2022-11-24T02:13:51.860Z,62.60
2022-11-24T02:16:43.236Z,62.00
2022-11-24T02:19:30.560Z,61.43
2022-11-24T02:22:20.733Z,59.30
2022-11-24T02:25:05.244Z,60.60
2022-11-24T02:27:56.398Z,57.47
2022-11-24T02:30:35.474Z,60.90
2022-11-24T02:33:15.134Z,58.93
2022-11-24T02:35:58.720Z,61.23
2022-11-24T02:38:40.079Z,59.33
2022-11-24T02:41:21.655Z,61.00
2022-11-24T02:44:17.406Z,60.87
2022-11-24T02:46:57.498Z,60.23
2022-11-24T02:49:37.755Z,63.27
2022-11-24T02:52:15.668Z,63.73
2022-11-24T02:54:55.997Z,61.63
2022-11-24T02:57:45.519Z,59.27
2022-11-24T03:00:33.261Z,65.63
2022-11-24T03:03:10.708Z,62.03
2022-11-24T03:05:52.744Z,65.23
2022-11-24T03:08:31.355Z,67.27
2022-11-24T03:11:11.411Z,65.23
2022-11-24T03:13:54.468Z,65.80
2022-11-24T03:16:41.702Z,63.23
2022-11-24T03:19:24.739Z,65.83
2022-11-24T03:22:01.833Z,65.63
2022-11-24T03:24:40.330Z,64.90
2022-11-24T03:27:17.608Z,71.40
2022-11-24T03:29:55.498Z,71.10
2022-11-24T03:32:39.550Z,69.60
2022-11-24T03:35:22.268Z,68.43
2022-11-24T03:38:01.706Z,71.17
2022-11-24T03:40:39.786Z,74.27
2022-11-24T03:43:18.322Z,70.70
2022-11-24T03:46:08.034Z,72.77
2022-11-24T03:48:51.505Z,77.60
2022-11-24T03:51:28.656Z,80.20
2022-11-24T03:54:09.363Z,81.23
2022-11-24T03:56:49.949Z,80.63
2022-11-24T03:59:30.579Z,84.33
2022-11-24T04:02:18.230Z,84.07
2022-11-24T04:05:09.133Z,82.23
2022-11-24T04:08:00.560Z,83.80
2022-11-24T04:10:47.752Z,86.67
2022-11-24T04:13:26.013Z,89.13
2022-11-24T04:16:15.226Z,89.30
2022-11-24T04:18:52.985Z,89.63
2022-11-24T04:21:36.539Z,87.03
2022-11-24T04:24:16.865Z,88.60
2022-11-24T04:27:02.511Z,89.33
2022-11-24T04:29:44.394Z,92.57
2022-11-24T04:32:24.259Z,97.20
2022-11-24T04:35:17.815Z,97.50
2022-11-24T04:38:12.653Z,96.33
2022-11-24T04:40:52.686Z,99.30
2022-11-24T04:43:40.384Z,99.57
2022-11-24T04:46:22.062Z,99.93
2022-11-24T04:49:00.764Z,100.53
2022-11-24T04:51:39.621Z,101.63
2022-11-24T04:54:22.412Z,105.83
2022-11-24T04:57:04.334Z,102.00
2022-11-24T04:59:52.658Z,99.87
2022-11-24T05:02:40.000Z,103.23
2022-11-24T05:05:28.121Z,102.43
2022-11-24T05:08:09.325Z,104.63
2022-11-24T05:10:57.073Z,102.33
2022-11-24T05:13:45.139Z,101.37
2022-11-24T05:16:31.371Z,104.50
2022-11-24T05:19:08.879Z,104.40
2022-11-24T05:21:59.946Z,107.47
2022-11-24T05:24:38.340Z,104.40
2022-11-24T05:27:20.782Z,103.73
2022-11-24T05:30:10.973Z,106.60
2022-11-24T05:32:49.155Z,106.03
2022-11-24T05:35:29.706Z,107.67
2022-11-24T05:38:10.410Z,106.27
2022-11-24T05:41:09.362Z,105.73
2022-11-24T05:43:51.927Z,105.90
2022-11-24T05:46:41.713Z,108.23
2022-11-24T05:49:20.404Z,107.63
2022-11-24T05:52:04.235Z,109.30
2022-11-24T05:54:47.281Z,105.60
2022-11-24T05:57:32.515Z,104.03
2022-11-24T06:00:20.312Z,104.30
2022-11-24T06:02:59.626Z,103.10
2022-11-24T06:05:50.745Z,102.20
2022-11-24T06:08:31.005Z,102.40
2022-11-24T06:11:25.608Z,106.17
2022-11-24T06:14:14.973Z,108.80
2022-11-24T06:16:59.939Z,105.63
2022-11-24T06:19:42.510Z,109.17
2022-11-24T06:22:20.965Z,108.97
2022-11-24T06:25:00.997Z,107.03
2022-11-24T06:27:44.016Z,108.57
2022-11-24T06:30:24.768Z,107.30
2022-11-24T06:33:11.031Z,103.77
2022-11-24T06:35:48.972Z,105.93
2022-11-24T06:38:29.962Z,107.97
2022-11-24T06:41:16.514Z,106.03
2022-11-24T06:44:07.420Z,103.13
2022-11-24T06:46:51.522Z,105.43
2022-11-24T06:49:51.557Z,103.97
2022-11-24T06:52:35.320Z,105.10
2022-11-24T06:55:23.703Z,105.67
2022-11-24T06:58:08.899Z,103.83
2022-11-24T07:00:48.017Z,102.63
2022-11-24T07:03:30.259Z,102.57
2022-11-24T07:06:17.922Z,103.47
2022-11-24T07:08:59.689Z,99.93
2022-11-24T07:11:39.040Z,101.20
2022-11-24T07:14:19.598Z,99.63
2022-11-24T07:17:02.769Z,97.00
2022-11-24T07:19:41.389Z,100.13
2022-11-24T07:22:21.551Z,100.70
2022-11-24T07:25:00.143Z,101.23
2022-11-24T07:27:40.629Z,95.77
2022-11-24T07:30:18.722Z,101.23
2022-11-24T07:33:18.105Z,97.97
2022-11-24T07:35:57.494Z,101.37
2022-11-24T07:38:40.083Z,100.57
2022-11-24T07:41:19.745Z,102.67
2022-11-24T07:43:57.592Z,101.37
2022-11-24T07:46:37.275Z,99.87
2022-11-24T07:49:19.160Z,101.43
2022-11-24T07:51:58.134Z,99.27
2022-11-24T07:54:39.650Z,100.47
2022-11-24T07:57:18.277Z,98.83
2022-11-24T08:00:01.228Z,100.27
2022-11-24T08:02:41.660Z,99.33
2022-11-24T08:05:28.065Z,98.50
2022-11-24T08:08:08.466Z,97.33
2022-11-24T08:11:03.444Z,98.00
2022-11-24T08:13:42.310Z,101.63
2022-11-24T08:16:20.758Z,100.30
2022-11-24T08:19:07.575Z,102.77
2022-11-24T08:21:51.027Z,104.03
2022-11-24T08:24:30.821Z,102.63
2022-11-24T08:27:10.674Z,103.77
2022-11-24T08:29:54.902Z,103.47
2022-11-24T08:32:36.572Z,98.73
2022-11-24T08:35:15.893Z,100.03
2022-11-24T08:38:00.307Z,97.90
2022-11-24T08:40:42.159Z,94.73
2022-11-24T08:43:27.086Z,95.47
2022-11-24T08:46:20.665Z,98.30
2022-11-24T08:49:04.607Z,96.43
2022-11-24T08:51:48.929Z,95.33
2022-11-24T08:54:28.011Z,97.23
2022-11-24T08:57:15.971Z,95.10
2022-11-24T09:00:09.230Z,96.17
2022-11-24T09:02:55.421Z,98.20
2022-11-24T09:05:53.282Z,96.27
2022-11-24T09:08:41.727Z,96.23
2022-11-24T09:11:28.897Z,95.70
2022-11-24T09:14:19.654Z,97.97
2022-11-24T09:17:00.562Z,94.73
2022-11-24T09:19:45.201Z,89.13
2022-11-24T09:22:30.034Z,83.00
2022-11-24T09:25:28.646Z,75.00
2022-11-24T09:28:06.825Z,67.80
2022-11-24T09:30:49.300Z,71.60
2022-11-24T09:33:40.752Z,68.93
2022-11-24T09:36:22.579Z,67.70
2022-11-24T09:39:07.433Z,66.83
2022-11-24T09:42:01.481Z,69.23
2022-11-24T09:45:49.049Z,69.37
2022-11-24T09:48:38.399Z,65.70
2022-11-24T09:51:19.178Z,64.80
2022-11-24T09:54:09.103Z,66.93
2022-11-24T09:56:53.316Z,59.10
2022-11-24T09:59:38.030Z,61.23
2022-11-24T10:02:23.924Z,60.83
2022-11-24T10:05:16.527Z,60.47
2022-11-24T10:08:19.801Z,55.40
2022-11-24T10:11:04.294Z,53.83
2022-11-24T10:14:10.613Z,55.13
2022-11-24T10:16:58.972Z,56.13
2022-11-24T10:19:55.936Z,54.27
2022-11-24T10:22:52.186Z,51.23
2022-11-24T10:25:39.118Z,52.03
2022-11-24T10:28:29.834Z,53.40
2022-11-24T10:31:45.549Z,50.90
2022-11-24T10:34:34.535Z,52.43
2022-11-24T10:37:20.800Z,53.80
2022-11-24T10:40:26.979Z,54.57
2022-11-24T10:43:26.057Z,56.27
2022-11-24T10:46:17.658Z,57.17
2022-11-24T10:49:06.267Z,57.27
2022-11-24T10:52:07.606Z,56.70
2022-11-24T10:55:06.757Z,56.50
2022-11-24T10:57:52.304Z,57.30
2022-11-24T11:00:46.905Z,57.60
2022-11-24T11:03:40.717Z,59.20
2022-11-24T11:06:46.668Z,58.03
2022-11-24T11:09:33.031Z,58.13
2022-11-24T11:12:47.371Z,59.23
2022-11-24T11:15:37.412Z,67.10
2022-11-24T11:18:24.386Z,82.90
2022-11-24T11:21:05.326Z,80.93
2022-11-24T11:23:51.321Z,80.63
2022-11-24T11:26:50.860Z,87.30
2022-11-24T11:36:19.026Z,101.23
2022-11-24T11:38:59.747Z,98.17
2022-11-24T11:41:40.802Z,98.17
2022-11-24T11:44:57.992Z,99.80
2022-11-24T11:47:50.991Z,96.37
2022-11-24T11:51:14.861Z,99.67
2022-11-24T11:53:55.049Z,97.73
2022-11-24T11:56:36.223Z,95.67
2022-11-24T11:59:49.250Z,94.27
2022-11-24T12:03:03.615Z,95.10
2022-11-24T12:05:57.070Z,94.43
2022-11-24T12:09:19.285Z,92.53
2022-11-24T12:12:38.797Z,91.67
2022-11-24T12:15:31.520Z,90.20
2022-11-24T12:18:55.939Z,84.63
2022-11-24T12:21:42.505Z,85.57
2022-11-24T12:24:40.027Z,86.70
2022-11-24T12:30:49.169Z,87.33
2022-11-24T12:33:55.349Z,84.73
2022-11-24T12:37:10.347Z,84.87
2022-11-24T12:39:57.919Z,86.23
2022-11-24T12:46:06.087Z,83.43
2022-11-24T12:49:00.031Z,85.50
2022-11-24T12:51:46.994Z,82.93
2022-11-24T12:54:27.631Z,83.53
2022-11-24T12:57:16.126Z,81.30
2022-11-24T13:00:13.584Z,85.37
2022-11-24T13:03:19.178Z,81.33
2022-11-24T13:06:06.826Z,84.73
2022-11-24T13:08:46.862Z,84.60
2022-11-24T13:11:47.440Z,84.13
2022-11-24T13:14:33.733Z,84.07
2022-11-24T13:17:43.512Z,84.67
2022-11-24T13:20:44.843Z,80.77
2022-11-24T13:23:40.864Z,82.00
2022-11-24T13:26:44.030Z,84.10
2022-11-24T13:29:44.959Z,83.70
2022-11-24T13:32:57.118Z,82.47
2022-11-24T13:36:03.180Z,83.00
2022-11-24T13:39:07.900Z,83.07
2022-11-24T13:42:42.313Z,81.73
2022-11-24T13:46:07.072Z,82.27
2022-11-24T13:49:15.441Z,81.33
2022-11-24T13:52:26.968Z,82.40
2022-11-24T13:55:12.939Z,82.63
2022-11-24T13:58:00.846Z,89.50
2022-11-24T14:00:45.868Z,79.90
2022-11-24T14:03:32.614Z,80.73
2022-11-24T14:06:13.090Z,81.17
2022-11-24T14:08:55.577Z,76.73
2022-11-24T14:11:41.952Z,78.70
2022-11-24T14:14:38.483Z,78.97
2022-11-24T14:20:59.856Z,75.70
2022-11-24T14:23:45.538Z,71.60
2022-11-24T14:26:40.887Z,68.53
2022-11-24T14:29:39.513Z,70.13
2022-11-24T14:32:36.574Z,70.30
2022-11-24T14:35:33.142Z,71.43
2022-11-24T14:38:25.380Z,71.10
2022-11-24T14:41:35.615Z,70.50
2022-11-24T14:44:35.712Z,69.73
2022-11-24T14:47:30.553Z,68.90
2022-11-24T14:50:29.592Z,68.10
2022-11-24T14:53:26.082Z,67.87
2022-11-24T14:56:32.008Z,69.77
2022-11-24T14:59:36.244Z,68.53
2022-11-24T15:02:51.315Z,67.97
2022-11-24T15:05:35.566Z,67.20
2022-11-24T15:08:24.106Z,67.83
2022-11-24T15:11:16.965Z,67.33
2022-11-24T15:14:02.582Z,67.83
2022-11-24T15:16:57.224Z,68.13
2022-11-24T15:19:49.869Z,68.83
2022-11-24T15:22:51.082Z,67.63
2022-11-24T15:25:55.056Z,68.33
2022-11-24T15:28:39.289Z,67.63
2022-11-24T15:31:23.615Z,68.40
2022-11-24T15:34:11.117Z,69.37
2022-11-24T15:37:00.786Z,69.13
2022-11-24T15:39:41.092Z,69.00
2022-11-24T15:42:31.792Z,71.50
2022-11-24T15:45:10.930Z,69.77
2022-11-24T15:47:50.924Z,69.10
2022-11-24T15:50:33.863Z,70.67
2022-11-24T15:53:29.233Z,67.77
2022-11-24T15:56:12.826Z,69.07
2022-11-24T15:58:52.968Z,69.03
2022-11-24T16:01:34.781Z,68.13
2022-11-24T16:04:17.764Z,70.73
2022-11-24T16:07:07.947Z,65.57
2022-11-24T16:09:49.369Z,67.10
2022-11-24T16:12:34.674Z,69.20
2022-11-24T16:15:37.507Z,70.70
2022-11-24T16:18:22.513Z,69.50
2022-11-24T16:21:00.018Z,69.43
2022-11-24T16:23:41.965Z,67.63
2022-11-24T16:26:28.012Z,69.23
2022-11-24T16:29:05.903Z,67.77
2022-11-24T16:32:03.170Z,69.03
2022-11-24T16:34:45.595Z,68.90
2022-11-24T16:37:25.490Z,68.27
2022-11-24T16:40:09.963Z,65.73
2022-11-24T16:42:51.004Z,66.87
2022-11-24T16:45:38.458Z,71.03
2022-11-24T16:48:24.492Z,66.13
2022-11-24T16:51:16.499Z,65.43
2022-11-24T16:54:10.019Z,65.13
2022-11-24T16:57:02.631Z,65.83
2022-11-24T16:59:57.168Z,64.87
2022-11-24T17:02:46.266Z,65.70
2022-11-24T17:05:23.724Z,63.97
2022-11-24T17:08:05.146Z,66.33
2022-11-24T17:10:50.374Z,68.00
2022-11-24T17:13:37.381Z,65.00
2022-11-24T17:16:18.882Z,66.27
2022-11-24T17:19:00.288Z,64.30
2022-11-24T17:21:52.387Z,62.83
2022-11-24T17:24:35.665Z,63.97
2022-11-24T17:27:18.493Z,64.63
2022-11-24T17:29:59.149Z,63.23
2022-11-24T17:32:38.522Z,64.67
2022-11-24T17:35:17.525Z,62.50
2022-11-24T17:37:58.659Z,63.83
2022-11-24T17:40:45.215Z,63.80
2022-11-24T17:43:25.653Z,62.07
2022-11-24T17:46:09.392Z,64.93
2022-11-24T17:48:51.886Z,64.00
2022-11-24T17:51:32.739Z,61.70
2022-11-24T17:54:45.824Z,65.90
2022-11-24T17:57:14.058Z,65.50
2022-11-24T18:00:07.802Z,65.40
2022-11-24T18:02:52.470Z,66.13
2022-11-24T18:05:32.613Z,65.63
2022-11-24T18:08:09.745Z,63.87
2022-11-24T18:10:48.404Z,65.93
2022-11-24T18:13:54.524Z,66.37
2022-11-24T18:16:22.231Z,65.37
2022-11-24T18:19:11.862Z,65.57
2022-11-24T18:21:48.863Z,65.93
2022-11-24T18:24:26.059Z,66.27
2022-11-24T18:27:01.966Z,63.87
2022-11-24T18:29:38.007Z,64.43
2022-11-24T18:32:16.624Z,64.93
2022-11-24T18:34:56.464Z,65.17
2022-11-24T18:37:35.555Z,63.47
2022-11-24T18:40:14.219Z,62.23
2022-11-24T18:42:51.253Z,63.67
2022-11-24T18:45:27.420Z,62.80
2022-11-24T18:48:04.305Z,64.07
2022-11-24T18:50:43.835Z,62.37
2022-11-24T18:53:20.804Z,65.80
2022-11-24T18:56:04.430Z,65.43
2022-11-24T18:58:41.960Z,64.20
2022-11-24T19:01:23.199Z,65.60
2022-11-24T19:04:01.215Z,63.97
2022-11-24T19:06:42.228Z,62.27
2022-11-24T19:09:24.129Z,63.13
2022-11-24T19:12:01.817Z,63.87
2022-11-24T19:14:38.917Z,63.80
2022-11-24T19:17:16.922Z,63.87
2022-11-24T19:19:54.193Z,62.83
2022-11-24T19:22:33.030Z,62.17
2022-11-24T19:25:09.687Z,62.27
2022-11-24T19:27:47.122Z,63.33
2022-11-24T19:30:24.785Z,60.27
2022-11-24T19:33:01.906Z,62.13
2022-11-24T19:35:38.374Z,63.83
2022-11-24T19:38:16.910Z,62.93
2022-11-24T19:40:52.955Z,62.70
2022-11-24T19:43:28.655Z,60.73
2022-11-24T19:46:08.187Z,60.23
2022-11-24T19:48:46.727Z,61.00
2022-11-24T19:51:24.389Z,61.07
2022-11-24T19:54:02.543Z,60.37
2022-11-24T19:56:39.509Z,59.17
2022-11-24T19:59:18.692Z,61.17
2022-11-24T20:01:55.539Z,61.50
2022-11-24T20:04:31.097Z,59.93
2022-11-24T20:07:07.118Z,62.87
2022-11-24T20:09:45.888Z,59.57
2022-11-24T20:12:21.584Z,61.53
2022-11-24T20:14:56.470Z,61.17
2022-11-24T20:17:34.186Z,61.77
2022-11-24T20:20:09.723Z,63.73
2022-11-24T20:22:44.688Z,61.47
2022-11-24T20:25:21.494Z,58.57
2022-11-24T20:27:57.303Z,59.30
2022-11-24T20:30:31.599Z,60.60
2022-11-24T20:33:05.934Z,61.33
2022-11-24T20:35:40.963Z,60.87
2022-11-24T20:38:15.592Z,59.33
2022-11-24T20:40:51.657Z,59.53
2022-11-24T20:43:26.453Z,62.13
2022-11-24T20:46:00.854Z,60.00
2022-11-24T20:48:35.050Z,60.30
2022-11-24T20:51:09.972Z,61.93
2022-11-24T20:53:45.460Z,61.67
2022-11-24T20:56:23.474Z,61.47
2022-11-24T20:58:58.938Z,59.20
2022-11-24T21:01:36.593Z,61.00
2022-11-24T21:04:13.211Z,61.90
2022-11-24T21:06:49.284Z,62.37
2022-11-24T21:09:24.772Z,64.60
2022-11-24T21:12:01.706Z,63.97
2022-11-24T21:14:36.351Z,60.43
2022-11-24T21:17:11.420Z,64.70
2022-11-24T21:19:45.734Z,63.37
2022-11-24T21:22:22.162Z,63.53
2022-11-24T21:24:57.610Z,61.30
2022-11-24T21:27:34.701Z,63.23
2022-11-24T21:30:09.476Z,61.43
2022-11-24T21:32:43.968Z,61.97
2022-11-24T21:35:18.559Z,61.97
2022-11-24T21:37:53.165Z,63.17
2022-11-24T21:40:27.358Z,62.97
2022-11-24T21:43:05.058Z,63.37
2022-11-24T21:45:42.101Z,63.37
2022-11-24T21:48:17.459Z,63.10
2022-11-24T21:50:53.354Z,63.30
2022-11-24T21:53:29.253Z,65.17
2022-11-24T21:56:06.578Z,62.47
2022-11-24T21:58:43.370Z,64.13
2022-11-24T22:01:18.209Z,64.80
2022-11-24T22:03:53.222Z,66.10
2022-11-24T22:06:28.452Z,64.43
2022-11-24T22:09:03.612Z,63.43
2022-11-24T22:11:39.205Z,66.23
2022-11-24T22:14:17.285Z,66.03
2022-11-24T22:16:53.265Z,65.27
2022-11-24T22:19:29.661Z,65.20
2022-11-24T22:22:05.502Z,65.53
2022-11-24T22:24:41.877Z,64.40
2022-11-24T22:27:18.775Z,68.57
2022-11-24T22:29:58.966Z,67.47
2022-11-24T22:32:33.881Z,65.90
2022-11-24T22:35:10.834Z,65.63
2022-11-24T22:37:47.115Z,67.23
2022-11-24T22:40:25.245Z,66.90
2022-11-24T22:43:01.175Z,65.37
2022-11-24T22:45:41.809Z,65.80
2022-11-24T22:48:18.278Z,64.80
2022-11-24T22:50:55.811Z,64.00
2022-11-24T22:53:33.022Z,68.87
2022-11-24T22:56:11.250Z,66.40
2022-11-24T22:58:48.304Z,67.07
2022-11-24T23:01:29.881Z,66.83
2022-11-24T23:04:06.170Z,64.20
2022-11-24T23:06:43.494Z,61.90
2022-11-24T23:09:21.017Z,63.70
2022-11-24T23:11:57.925Z,60.33
2022-11-24T23:14:34.438Z,61.67
2022-11-24T23:17:14.119Z,63.53
2022-11-24T23:19:50.719Z,65.53
2022-11-24T23:22:27.310Z,63.47
2022-11-24T23:25:03.919Z,63.77
2022-11-24T23:27:40.622Z,64.17
2022-11-24T23:30:18.054Z,64.83
2022-11-24T23:32:58.990Z,64.17
2022-11-24T23:35:36.451Z,64.47
2022-11-24T23:38:12.571Z,64.77
2022-11-24T23:40:49.848Z,65.00
2022-11-24T23:43:26.156Z,65.77
2022-11-24T23:46:07.351Z,62.27
2022-11-24T23:48:48.933Z,64.77
2022-11-24T23:51:26.789Z,62.20
2022-11-24T23:54:03.498Z,64.10
2022-11-24T23:56:39.112Z,63.00
2022-11-24T23:59:18.827Z,61.80
